Time;durP1;ratioP1;P1;durP2;ratioP2;P2;SDS_P1;SDS_P2;PMS_P1;PMS_P2;Temp;Humidity;BMP_temperature;BMP_pressure;BME280_temperature;BME280_humidity;BME280_pressure;Samples;Min_cycle;Max_cycle;Signal;HPM_P1;HPM_P2
2022/03/28 00:00:34;;;;;;;57.20;18.80;;;7.80;99.90;;;;;;5031783;28;20214;-76
2022/03/28 00:02:59;;;;;;;54.23;18.77;;;7.80;99.90;;;;;;5031656;28;20195;-76
2022/03/28 00:05:25;;;;;;;63.47;19.97;;;7.40;99.90;;;;;;5031447;28;20680;-76
2022/03/28 00:07:51;;;;;;;54.97;19.47;;;7.20;99.90;;;;;;5031802;28;20171;-76
2022/03/28 00:10:16;;;;;;;54.63;19.27;;;7.00;99.90;;;;;;5031717;28;20290;-76
2022/03/28 00:12:42;;;;;;;64.00;19.10;;;6.80;99.90;;;;;;5031522;28;20683;-76
2022/03/28 00:15:09;;;;;;;58.13;19.03;;;6.70;99.90;;;;;;5031542;28;20213;-76
2022/03/28 00:17:36;;;;;;;51.30;18.17;;;6.90;99.90;;;;;;5031651;28;20304;-76
2022/03/28 00:20:07;;;;;;;67.57;20.07;;;6.80;99.90;;;;;;5031312;28;20212;-76
2022/03/28 00:22:33;;;;;;;50.90;17.50;;;6.80;99.90;;;;;;5031394;28;20174;-76
2022/03/28 00:24:58;;;;;;;62.20;18.80;;;6.80;99.90;;;;;;5031518;28;20169;-76
2022/03/28 00:27:24;;;;;;;61.90;18.73;;;6.90;99.90;;;;;;5031540;28;20684;-77
2022/03/28 00:29:50;;;;;;;59.90;19.43;;;7.00;99.90;;;;;;5031325;28;20198;-76
2022/03/28 00:32:16;;;;;;;51.03;17.67;;;7.10;99.90;;;;;;5031029;28;20202;-76
2022/03/28 00:34:42;;;;;;;59.30;19.07;;;7.10;99.90;;;;;;5032537;28;20623;-76
2022/03/28 00:37:07;;;;;;;61.40;19.87;;;7.00;99.90;;;;;;5031093;28;20681;-76
2022/03/28 00:39:33;;;;;;;58.23;18.10;;;7.00;99.90;;;;;;5031141;28;20211;-76
2022/03/28 00:41:59;;;;;;;57.10;19.80;;;7.10;99.90;;;;;;5031010;28;20180;-76
2022/03/28 00:44:24;;;;;;;57.27;19.57;;;7.00;99.90;;;;;;5032411;28;20167;-76
2022/03/28 00:46:50;;;;;;;56.87;17.97;;;7.10;99.90;;;;;;5031094;28;20174;-76
2022/03/28 00:49:16;;;;;;;52.60;18.20;;;7.10;99.90;;;;;;5030978;28;20694;-76
2022/03/28 00:51:42;;;;;;;56.60;19.13;;;7.10;99.90;;;;;;5030856;28;20172;-76
2022/03/28 00:54:08;;;;;;;50.77;18.43;;;7.10;99.90;;;;;;5030934;28;20177;-76
2022/03/28 00:56:35;;;;;;;51.83;18.80;;;7.10;99.90;;;;;;5030752;28;20235;-76
2022/03/28 00:59:02;;;;;;;53.77;18.63;;;7.20;99.90;;;;;;5030762;28;20302;-76
2022/03/28 01:01:28;;;;;;;49.63;17.30;;;7.10;99.90;;;;;;5030580;28;20709;-76
2022/03/28 01:03:54;;;;;;;46.70;16.60;;;7.10;99.90;;;;;;5030774;28;20206;-76
2022/03/28 01:06:20;;;;;;;52.07;17.90;;;7.00;99.90;;;;;;5030851;28;20609;-76
2022/03/28 01:08:46;;;;;;;50.87;17.30;;;7.00;99.90;;;;;;5030801;28;20192;-76
2022/03/28 01:11:12;;;;;;;47.20;17.50;;;6.90;99.90;;;;;;5030629;28;20577;-76
2022/03/28 01:13:40;;;;;;;53.67;19.20;;;6.90;99.90;;;;;;5030793;28;20177;-76
2022/03/28 01:16:06;;;;;;;61.83;18.53;;;6.70;99.90;;;;;;5030729;28;20170;-76
2022/03/28 01:18:32;;;;;;;54.03;18.63;;;6.50;99.90;;;;;;5030026;28;20192;-76
2022/03/28 01:21:02;;;;;;;58.50;19.33;;;6.70;99.90;;;;;;5030619;28;20206;-76
2022/03/28 01:23:29;;;;;;;68.33;19.43;;;6.80;99.90;;;;;;5030767;28;20201;-76
2022/03/28 01:25:56;;;;;;;57.20;19.23;;;6.70;99.90;;;;;;5030782;28;20285;-76
2022/03/28 01:28:27;;;;;;;71.47;21.10;;;6.80;99.90;;;;;;5030695;28;20201;-76
2022/03/28 01:30:54;;;;;;;60.90;20.13;;;6.80;99.90;;;;;;5030619;28;20176;-76
2022/03/28 01:33:20;;;;;;;70.83;20.87;;;6.80;99.90;;;;;;5030427;28;20204;-76
2022/03/28 01:35:46;;;;;;;67.77;22.67;;;6.60;99.90;;;;;;5030633;28;20273;-76
2022/03/28 01:38:14;;;;;;;68.37;21.70;;;6.60;99.90;;;;;;5030460;28;20187;-76
2022/03/28 01:40:43;;;;;;;71.00;21.80;;;6.50;99.90;;;;;;5030477;28;20584;-76
2022/03/28 01:43:09;;;;;;;67.60;21.43;;;6.70;99.90;;;;;;5030359;28;20259;-76
2022/03/28 01:45:35;;;;;;;70.83;21.23;;;6.30;99.90;;;;;;5030387;28;20185;-76
2022/03/28 01:48:01;;;;;;;67.23;21.53;;;6.20;99.90;;;;;;5030553;28;20182;-76
2022/03/28 01:50:27;;;;;;;71.03;22.80;;;6.10;99.90;;;;;;5030403;28;20670;-76
2022/03/28 01:52:53;;;;;;;72.30;20.90;;;6.00;99.90;;;;;;5030324;28;20214;-76
2022/03/28 01:55:19;;;;;;;66.43;21.53;;;5.90;99.90;;;;;;5030337;28;20174;-76
2022/03/28 01:57:45;;;;;;;59.37;19.53;;;6.00;99.90;;;;;;5030392;28;20235;-76
2022/03/28 02:00:15;;;;;;;71.17;22.07;;;6.00;99.90;;;;;;5030164;28;20205;-75
2022/03/28 02:02:42;;;;;;;58.33;19.20;;;6.00;99.90;;;;;;5029793;28;20262;-76
2022/03/28 02:05:12;;;;;;;69.83;20.53;;;6.00;99.90;;;;;;5030047;28;20168;-75
2022/03/28 02:07:42;;;;;;;67.43;20.50;;;6.20;99.90;;;;;;5029883;28;20642;-75
2022/03/28 02:10:10;;;;;;;60.37;19.60;;;6.40;99.90;;;;;;5030221;28;20190;-75
2022/03/28 02:12:35;;;;;;;61.73;21.10;;;6.50;99.90;;;;;;5030057;28;20644;-75
2022/03/28 02:15:02;;;;;;;67.70;21.60;;;6.50;99.90;;;;;;5030201;28;20269;-76
2022/03/28 02:17:28;;;;;;;67.87;20.20;;;6.50;99.90;;;;;;5030265;28;20224;-76
2022/03/28 02:19:53;;;;;;;57.33;19.53;;;6.50;99.90;;;;;;5030046;28;20202;-75
2022/03/28 02:22:19;;;;;;;57.93;19.40;;;6.40;99.90;;;;;;5029996;28;20179;-75
2022/03/28 02:24:45;;;;;;;60.60;20.67;;;6.50;99.90;;;;;;5030146;28;20178;-76
2022/03/28 02:27:10;;;;;;;63.43;20.67;;;6.30;99.90;;;;;;5030058;28;20266;-76
2022/03/28 02:29:36;;;;;;;60.37;19.50;;;6.30;99.90;;;;;;5032488;28;20561;-75
2022/03/28 02:32:02;;;;;;;58.30;20.17;;;6.40;99.90;;;;;;5033300;28;20194;-75
2022/03/28 02:34:28;;;;;;;60.47;19.23;;;6.30;99.90;;;;;;5033509;28;20690;-75
2022/03/28 02:36:54;;;;;;;73.57;19.97;;;6.20;99.90;;;;;;5033406;28;20181;-75
2022/03/28 02:39:19;;;;;;;63.73;20.67;;;6.20;99.90;;;;;;5033334;28;20214;-75
2022/03/28 02:41:45;;;;;;;67.80;20.57;;;6.30;99.90;;;;;;5033187;28;20194;-76
2022/03/28 02:44:10;;;;;;;68.00;19.60;;;6.40;99.90;;;;;;5033349;28;20305;-76
2022/03/28 02:46:36;;;;;;;59.40;19.00;;;6.20;99.90;;;;;;5033319;28;20180;-75
2022/03/28 02:49:03;;;;;;;67.43;20.43;;;6.30;99.90;;;;;;5033262;28;20248;-75
2022/03/28 02:51:29;;;;;;;65.80;20.57;;;6.30;99.90;;;;;;5033167;28;20266;-75
2022/03/28 02:53:55;;;;;;;64.30;20.70;;;6.40;99.90;;;;;;5033388;28;20188;-75
2022/03/28 02:56:21;;;;;;;56.40;19.83;;;6.50;99.90;;;;;;5032813;28;20710;-76
2022/03/28 02:58:46;;;;;;;64.80;20.40;;;6.30;99.90;;;;;;5033017;28;20204;-75
2022/03/28 03:01:12;;;;;;;56.30;18.93;;;6.30;99.90;;;;;;5032856;28;20177;-75
2022/03/28 03:03:38;;;;;;;56.83;18.50;;;6.30;99.90;;;;;;5033067;28;20179;-75
2022/03/28 03:06:03;;;;;;;56.37;18.93;;;6.30;99.90;;;;;;5033004;28;20264;-75
2022/03/28 03:08:29;;;;;;;57.87;19.03;;;6.30;99.90;;;;;;5032860;28;20170;-75
2022/03/28 03:10:55;;;;;;;58.17;19.57;;;6.30;99.90;;;;;;5032753;28;20177;-75
2022/03/28 03:13:21;;;;;;;53.63;19.90;;;6.40;99.90;;;;;;5032655;28;20180;-76
2022/03/28 03:15:47;;;;;;;58.97;20.20;;;6.30;99.90;;;;;;5032817;28;20186;-75
2022/03/28 03:18:12;;;;;;;67.23;20.37;;;6.20;99.90;;;;;;5032725;28;20178;-75
2022/03/28 03:20:38;;;;;;;59.97;20.07;;;6.00;99.90;;;;;;5032682;28;20222;-75
2022/03/28 03:23:04;;;;;;;62.10;20.13;;;5.90;99.90;;;;;;5032464;28;20171;-75
2022/03/28 03:25:29;;;;;;;61.40;19.97;;;5.80;99.90;;;;;;5032475;28;20240;-75
2022/03/28 03:27:56;;;;;;;65.33;20.17;;;5.90;99.90;;;;;;5032503;28;20538;-75
2022/03/28 03:30:22;;;;;;;58.80;21.07;;;5.90;99.90;;;;;;5032514;28;20249;-75
2022/03/28 03:32:48;;;;;;;60.40;19.13;;;5.80;99.90;;;;;;5032184;28;20583;-75
2022/03/28 03:35:13;;;;;;;59.57;19.40;;;5.70;99.90;;;;;;5032416;28;20267;-75
2022/03/28 03:37:40;;;;;;;67.73;20.20;;;5.80;99.90;;;;;;5032030;28;20276;-76
2022/03/28 03:40:07;;;;;;;57.67;20.40;;;5.70;99.90;;;;;;5031500;28;20218;-75
2022/03/28 03:42:33;;;;;;;65.83;20.27;;;5.60;99.90;;;;;;5032065;28;20746;-76
2022/03/28 03:45:03;;;;;;;67.57;20.43;;;5.70;99.90;;;;;;5032267;28;20197;-76
2022/03/28 03:47:28;;;;;;;63.97;20.07;;;5.90;99.90;;;;;;5032303;28;20183;-75
2022/03/28 03:49:54;;;;;;;70.10;23.53;;;6.00;99.90;;;;;;5032108;28;20561;-75
2022/03/28 03:52:20;;;;;;;67.20;20.53;;;5.80;99.90;;;;;;5031982;28;20210;-76
2022/03/28 03:54:45;;;;;;;60.50;19.53;;;5.90;99.90;;;;;;5031657;28;20182;-75
2022/03/28 03:57:11;;;;;;;61.27;20.03;;;5.90;99.90;;;;;;5032014;28;20180;-75
2022/03/28 03:59:37;;;;;;;75.30;22.70;;;5.90;99.90;;;;;;5031911;28;20234;-75
2022/03/28 04:02:03;;;;;;;67.43;22.37;;;6.00;99.90;;;;;;5031814;28;20170;-75
2022/03/28 04:04:28;;;;;;;76.87;22.20;;;5.90;99.90;;;;;;5031848;28;20211;-75
2022/03/28 04:06:54;;;;;;;67.20;20.87;;;5.70;99.90;;;;;;5031830;28;20188;-75
2022/03/28 04:09:20;;;;;;;73.27;21.70;;;5.60;99.90;;;;;;5031684;28;20202;-75
2022/03/28 04:11:47;;;;;;;62.37;20.70;;;5.50;99.90;;;;;;5031488;28;20690;-75
2022/03/28 04:14:12;;;;;;;71.17;22.97;;;5.70;99.90;;;;;;5031776;28;20180;-75
2022/03/28 04:16:38;;;;;;;77.50;22.83;;;5.70;99.90;;;;;;5031618;28;20638;-76
2022/03/28 04:19:04;;;;;;;74.77;22.80;;;5.60;99.90;;;;;;5031528;28;20573;-75
2022/03/28 04:21:29;;;;;;;66.40;20.67;;;5.60;99.90;;;;;;5031392;28;20179;-75
2022/03/28 04:23:55;;;;;;;70.20;21.40;;;5.60;99.90;;;;;;5031461;28;20175;-75
2022/03/28 04:26:20;;;;;;;69.53;20.43;;;5.70;99.90;;;;;;5031356;28;20201;-75
2022/03/28 04:28:46;;;;;;;76.50;22.90;;;5.80;99.90;;;;;;5031451;28;20244;-75
2022/03/28 04:31:13;;;;;;;72.27;22.53;;;5.80;99.90;;;;;;5031034;28;20269;-75
2022/03/28 04:33:38;;;;;;;74.03;21.93;;;5.70;99.90;;;;;;5031371;28;20170;-75
2022/03/28 04:36:04;;;;;;;70.50;22.40;;;5.60;99.90;;;;;;5031320;28;20580;-75
2022/03/28 04:38:30;;;;;;;69.13;22.10;;;5.40;99.90;;;;;;5031021;28;20181;-75
2022/03/28 04:40:56;;;;;;;69.10;21.97;;;5.60;99.90;;;;;;5031039;28;20232;-75
2022/03/28 04:43:22;;;;;;;69.70;21.63;;;5.60;99.90;;;;;;5031028;28;20170;-75
2022/03/28 04:45:48;;;;;;;70.07;22.73;;;5.40;99.90;;;;;;5031094;28;20185;-75
2022/03/28 04:48:14;;;;;;;63.33;21.10;;;5.50;99.90;;;;;;5031072;28;20273;-75
2022/03/28 04:50:39;;;;;;;64.40;21.20;;;5.50;99.90;;;;;;5030979;28;20205;-75
2022/03/28 04:53:05;;;;;;;73.47;22.43;;;5.60;99.90;;;;;;5029899;28;20186;-76
2022/03/28 04:55:31;;;;;;;75.67;21.23;;;5.50;99.90;;;;;;5030573;28;20182;-76
2022/03/28 04:57:57;;;;;;;67.07;20.60;;;5.50;99.90;;;;;;5031048;28;20182;-75
2022/03/28 05:00:23;;;;;;;72.27;21.67;;;5.40;99.90;;;;;;5030963;28;20739;-75
2022/03/28 05:02:49;;;;;;;67.80;21.10;;;5.40;99.90;;;;;;5030507;28;20178;-75
2022/03/28 05:05:15;;;;;;;62.80;20.87;;;5.20;99.90;;;;;;5030830;28;20184;-76
2022/03/28 05:07:40;;;;;;;67.77;19.83;;;5.30;99.90;;;;;;5030798;28;20171;-76
2022/03/28 05:10:07;;;;;;;66.47;20.37;;;5.30;99.90;;;;;;5030801;28;20198;-75
2022/03/28 05:12:33;;;;;;;66.70;19.77;;;5.50;99.90;;;;;;5030603;28;20189;-75
2022/03/28 05:14:59;;;;;;;58.70;19.83;;;5.50;99.90;;;;;;5030732;28;20179;-75
2022/03/28 05:17:27;;;;;;;70.43;19.90;;;5.40;99.90;;;;;;5030816;28;20632;-76
2022/03/28 05:19:55;;;;;;;66.23;20.53;;;5.30;99.90;;;;;;5030513;28;20621;-75
2022/03/28 05:22:21;;;;;;;60.57;19.37;;;5.30;99.90;;;;;;5029491;28;20623;-75
2022/03/28 05:24:48;;;;;;;64.50;20.13;;;5.30;99.90;;;;;;5030513;28;20179;-75
2022/03/28 05:27:15;;;;;;;65.37;19.77;;;5.30;99.90;;;;;;5030736;28;20232;-75
2022/03/28 05:29:41;;;;;;;58.60;18.93;;;5.30;99.90;;;;;;5030431;28;20206;-75
2022/03/28 05:32:07;;;;;;;57.17;19.97;;;5.30;99.90;;;;;;5034257;23;20249;-75
2022/03/28 05:34:32;;;;;;;54.97;17.70;;;5.40;99.90;;;;;;5013987;28;20234;-75
2022/03/28 05:37:04;;;;;;;60.73;18.73;;;5.40;99.90;;;;;;5014150;28;20682;-75
2022/03/28 05:39:33;;;;;;;48.20;17.07;;;5.30;99.90;;;;;;5013891;28;20304;-75
2022/03/28 05:41:59;;;;;;;62.77;18.93;;;5.30;99.90;;;;;;5013894;28;20170;-75
2022/03/28 05:44:25;;;;;;;53.00;17.10;;;5.40;99.90;;;;;;5013704;28;20176;-75
2022/03/28 05:46:51;;;;;;;54.83;18.57;;;5.60;99.90;;;;;;5013502;28;20638;-75
2022/03/28 05:49:18;;;;;;;53.70;16.83;;;5.50;99.90;;;;;;5013918;28;20202;-76
2022/03/28 05:51:44;;;;;;;47.90;15.57;;;5.40;99.90;;;;;;5013870;28;20172;-75
2022/03/28 05:54:10;;;;;;;45.07;15.20;;;5.50;99.90;;;;;;5013931;28;20180;-75
2022/03/28 05:56:36;;;;;;;44.07;14.20;;;5.50;99.90;;;;;;5013581;28;20181;-75
2022/03/28 05:59:02;;;;;;;41.90;14.50;;;5.60;99.90;;;;;;5031521;28;20201;-76
2022/03/28 06:01:29;;;;;;;40.17;13.13;;;5.70;99.90;;;;;;5013743;28;20572;-75
2022/03/28 06:03:54;;;;;;;53.40;15.10;;;5.60;99.90;;;;;;5015346;28;20271;-76
2022/03/28 06:06:20;;;;;;;41.33;13.37;;;5.80;99.90;;;;;;5017604;28;20204;-76
2022/03/28 06:08:46;;;;;;;47.33;12.87;;;5.90;99.90;;;;;;5017469;28;20277;-76
2022/03/28 06:11:11;;;;;;;39.70;12.73;;;5.90;99.90;;;;;;5017414;28;20247;-76
2022/03/28 06:13:37;;;;;;;39.80;12.43;;;5.90;99.90;;;;;;5017519;28;20640;-76
2022/03/28 06:16:04;;;;;;;37.40;11.67;;;5.80;99.90;;;;;;5017447;28;20189;-75
2022/03/28 06:18:29;;;;;;;31.33;10.57;;;6.00;99.90;;;;;;5017299;28;20188;-76
2022/03/28 06:20:55;;;;;;;36.50;12.03;;;6.30;99.90;;;;;;5017192;28;20667;-75
2022/03/28 06:23:21;;;;;;;39.63;12.60;;;6.70;99.90;;;;;;5017200;28;20182;-76
2022/03/28 06:25:48;;;;;;;31.57;11.20;;;7.10;99.90;;;;;;5017659;28;20174;-80
2022/03/28 06:28:15;;;;;;;31.20;9.90;;;7.20;99.90;;;;;;5017858;28;20264;-78
2022/03/28 06:30:41;;;;;;;37.80;10.20;;;7.30;99.90;;;;;;5017488;28;20253;-78
2022/03/28 06:33:07;;;;;;;34.90;10.63;;;7.30;99.90;;;;;;5017410;28;20228;-78
2022/03/28 06:35:32;;;;;;;27.70;10.13;;;7.80;99.90;;;;;;5017970;28;20219;-78
2022/03/28 06:37:58;;;;;;;25.63;9.43;;;8.20;99.90;;;;;;5018192;28;20178;-78
2022/03/28 06:40:24;;;;;;;31.93;10.37;;;8.50;99.90;;;;;;5018337;28;20204;-78
2022/03/28 06:42:50;;;;;;;34.07;9.93;;;8.40;99.90;;;;;;5020614;28;20218;-78
2022/03/28 06:45:16;;;;;;;23.20;9.70;;;9.00;99.90;;;;;;5020522;28;20228;-78
2022/03/28 06:47:42;;;;;;;25.27;9.57;;;8.80;99.90;;;;;;5035287;28;20166;-77
2022/03/28 06:50:09;;;;;;;25.70;9.47;;;8.90;99.90;;;;;;5017113;28;20203;-77
2022/03/28 06:52:35;;;;;;;24.70;9.60;;;8.60;99.90;;;;;;5016699;28;20670;-78
2022/03/28 06:55:03;;;;;;;30.53;9.10;;;8.80;99.90;;;;;;5017034;28;20178;-77
2022/03/28 06:57:28;;;;;;;28.53;8.57;;;8.50;99.90;;;;;;5017416;28;20204;-77
2022/03/28 06:59:54;;;;;;;30.60;8.60;;;8.90;99.90;;;;;;5016818;28;20682;-77
2022/03/28 07:02:20;;;;;;;35.40;8.90;;;10.00;99.90;;;;;;5017069;28;20197;-77
2022/03/28 07:04:46;;;;;;;26.37;8.60;;;10.10;99.90;;;;;;5017041;28;20169;-78
2022/03/28 07:07:11;;;;;;;25.47;8.57;;;10.80;99.90;;;;;;5016964;28;20194;-77
2022/03/28 07:09:38;;;;;;;23.73;8.17;;;11.60;99.90;;;;;;5016792;28;20231;-78
2022/03/28 07:12:05;;;;;;;22.43;8.33;;;12.00;99.90;;;;;;5016513;28;20170;-77
2022/03/28 07:14:32;;;;;;;26.37;8.13;;;11.00;99.90;;;;;;5015734;28;20384;-78
2022/03/28 07:16:58;;;;;;;37.47;9.07;;;11.40;99.90;;;;;;5015987;28;20178;-78
2022/03/28 07:19:24;;;;;;;24.37;8.77;;;12.30;98.90;;;;;;5016605;28;20288;-78
2022/03/28 07:21:49;;;;;;;29.10;8.47;;;13.10;97.80;;;;;;5016436;28;20265;-77
2022/03/28 07:24:17;;;;;;;22.17;8.00;;;13.20;95.60;;;;;;5016421;28;20170;-78
2022/03/28 07:26:45;;;;;;;25.73;8.20;;;13.40;95.60;;;;;;5016267;28;20174;-77
2022/03/28 07:29:11;;;;;;;19.57;8.07;;;13.90;93.20;;;;;;5012675;28;20898;-78
2022/03/28 07:31:39;;;;;;;28.50;8.33;;;14.00;93.10;;;;;;5015000;28;20228;-77
2022/03/28 07:36:51;;;;;;;29.33;8.40;;;11.00;99.10;;;;;;5034204;28;20205;-78
2022/03/28 07:39:19;;;;;;;19.47;8.17;;;13.30;93.70;;;;;;5015563;28;20690;-78
2022/03/28 07:41:45;;;;;;;24.63;8.77;;;14.70;92.00;;;;;;5017974;28;20170;-78
2022/03/28 07:44:11;;;;;;;20.23;9.27;;;14.90;91.70;;;;;;5035632;28;20174;-79
2022/03/28 07:46:37;;;;;;;25.77;8.87;;;15.50;88.30;;;;;;5021626;28;20180;-79
2022/03/28 07:49:02;;;;;;;24.10;9.00;;;15.50;90.00;;;;;;5019770;28;20281;-78
2022/03/28 07:51:28;;;;;;;20.05;8.80;;;16.10;83.90;;;;;;5016281;28;20163;-78
2022/03/28 07:53:54;;;;;;;24.20;8.48;;;15.40;86.80;;;;;;5016474;28;20685;-78
2022/03/28 07:56:20;;;;;;;18.65;8.85;;;16.90;85.40;;;;;;5015962;28;20279;-78
2022/03/28 07:58:46;;;;;;;22.48;9.38;;;14.80;88.10;;;;;;5016229;28;20190;-78
2022/03/28 08:01:12;;;;;;;19.23;8.88;;;15.80;87.30;;;;;;5017267;28;20206;-78
2022/03/28 08:03:38;;;;;;;17.33;8.50;;;17.60;80.90;;;;;;5022089;28;20241;-78
2022/03/28 08:06:04;;;;;;;18.50;9.30;;;17.60;80.40;;;;;;5021529;28;20210;-79
2022/03/28 08:08:32;;;;;;;23.83;10.38;;;18.10;81.20;;;;;;5021244;28;20515;-79
2022/03/28 08:11:00;;;;;;;18.05;9.38;;;18.70;75.90;;;;;;5020151;28;20170;-78
2022/03/28 08:13:26;;;;;;;19.23;10.15;;;18.20;77.30;;;;;;5018638;28;20174;-78
2022/03/28 08:15:52;;;;;;;19.73;10.13;;;18.60;74.80;;;;;;5019624;28;20523;-79
2022/03/28 08:18:17;;;;;;;22.13;9.88;;;17.70;81.30;;;;;;5019773;28;20166;-79
2022/03/28 08:20:43;;;;;;;19.17;9.98;;;17.40;80.70;;;;;;5019790;28;20630;-78
2022/03/28 08:23:09;;;;;;;20.20;10.27;;;16.80;80.90;;;;;;5020093;28;20166;-78
2022/03/28 08:25:35;;;;;;;20.00;10.00;;;16.60;80.90;;;;;;5019654;28;20170;-78
2022/03/28 08:28:02;;;;;;;16.27;9.23;;;17.70;78.20;;;;;;5021413;28;20196;-78
2022/03/28 08:30:29;;;;;;;17.92;9.77;;;16.00;85.60;;;;;;5021120;28;20288;-78
2022/03/28 08:32:55;;;;;;;18.67;10.23;;;15.40;87.90;;;;;;5019442;28;20658;-78
2022/03/28 08:35:21;;;;;;;20.98;9.90;;;15.30;84.70;;;;;;5018358;28;20178;-78
2022/03/28 08:37:48;;;;;;;17.33;9.40;;;13.60;89.70;;;;;;5017989;28;20174;-78
2022/03/28 08:40:17;;;;;;;19.05;9.82;;;13.80;90.80;;;;;;5018566;28;20212;-78
2022/03/28 08:42:43;;;;;;;16.58;9.65;;;13.60;91.00;;;;;;5018601;28;20170;-78
2022/03/28 08:45:11;;;;;;;16.33;9.68;;;15.30;87.30;;;;;;5019636;28;20540;-78
2022/03/28 08:47:45;;;;;;;18.95;9.95;;;15.90;85.50;;;;;;5019219;28;20712;-78
2022/03/28 08:50:12;;;;;;;18.45;10.18;;;15.50;82.40;;;;;;5019556;28;20202;-78
2022/03/28 08:52:40;;;;;;;19.73;9.75;;;14.90;87.20;;;;;;5019379;28;20207;-78
2022/03/28 08:55:07;;;;;;;18.67;10.32;;;13.40;90.70;;;;;;5019638;28;20174;-78
2022/03/28 08:57:33;;;;;;;23.27;9.70;;;14.10;90.90;;;;;;5020433;28;20254;-78
2022/03/28 08:59:59;;;;;;;20.90;9.90;;;14.10;91.60;;;;;;5018477;28;20662;-78
2022/03/28 09:02:42;;;;;;;18.17;9.75;;;14.00;90.30;;;;;;5018143;28;20174;-78
2022/03/28 09:05:09;;;;;;;19.27;10.63;;;14.40;90.70;;;;;;5017962;28;20178;-78
2022/03/28 09:07:35;;;;;;;20.52;9.30;;;14.30;91.40;;;;;;5018402;28;20177;-78
2022/03/28 09:10:05;;;;;;;18.88;10.25;;;14.70;91.00;;;;;;5018220;28;20717;-78
2022/03/28 09:12:30;;;;;;;19.70;9.88;;;15.00;90.20;;;;;;5015885;28;20245;-78
2022/03/28 09:15:04;;;;;;;16.98;9.82;;;15.40;87.10;;;;;;5015620;28;20618;-78
2022/03/28 09:17:31;;;;;;;19.35;10.35;;;14.50;90.70;;;;;;5016577;28;20181;-78
2022/03/28 09:20:01;;;;;;;16.75;9.10;;;14.30;90.60;;;;;;5016363;28;20213;-78
2022/03/28 09:22:32;;;;;;;17.92;9.30;;;13.90;91.40;;;;;;5020485;28;20263;-78
2022/03/28 09:25:04;;;;;;;19.25;9.68;;;14.40;91.30;;;;;;5020877;28;20177;-79
2022/03/28 09:27:32;;;;;;;16.30;9.27;;;13.50;92.70;;;;;;5015640;28;20622;-78
2022/03/28 09:30:06;;;;;;;21.03;9.63;;;13.50;92.00;;;;;;5015775;28;20189;-78
2022/03/28 09:32:37;;;;;;;16.73;9.20;;;14.50;91.20;;;;;;5015490;28;20276;-79
2022/03/28 09:35:03;;;;;;;19.30;9.73;;;14.50;91.20;;;;;;5017089;28;20178;-78
2022/03/28 09:37:29;;;;;;;18.77;9.53;;;14.40;90.90;;;;;;5015547;28;20176;-77
2022/03/28 09:39:55;;;;;;;24.83;10.17;;;14.00;91.00;;;;;;5017685;28;20205;-78
2022/03/28 09:42:20;;;;;;;20.03;10.10;;;14.00;91.70;;;;;;5017803;28;20178;-77
2022/03/28 09:44:50;;;;;;;20.40;10.47;;;14.60;90.90;;;;;;5018156;28;20170;-77
2022/03/28 09:47:18;;;;;;;23.77;10.67;;;14.30;91.40;;;;;;5018561;28;20200;-77
2022/03/28 09:49:45;;;;;;;22.73;10.70;;;14.60;91.90;;;;;;5018062;28;20700;-77
2022/03/28 09:52:13;;;;;;;25.08;12.35;;;15.40;90.10;;;;;;5017870;28;20201;-78
2022/03/28 09:54:55;;;;;;;25.23;11.23;;;15.20;90.30;;;;;;5018215;28;20487;-78
2022/03/28 09:57:25;;;;;;;18.58;11.23;;;15.40;91.20;;;;;;5017694;28;20178;-77
2022/03/28 09:59:53;;;;;;;18.45;11.00;;;15.20;89.50;;;;;;5017726;28;20566;-77
2022/03/28 10:02:24;;;;;;;19.52;10.57;;;15.20;91.00;;;;;;5017496;28;20170;-77
2022/03/28 10:04:56;;;;;;;21.17;11.85;;;15.30;90.80;;;;;;5035578;28;20177;-77
2022/03/28 10:07:22;;;;;;;26.48;11.20;;;15.90;89.80;;;;;;5016100;28;20213;-77
2022/03/28 10:09:50;;;;;;;17.92;10.48;;;15.80;90.10;;;;;;5018892;28;20197;-77
2022/03/28 10:12:18;;;;;;;23.83;11.98;;;15.50;90.30;;;;;;5017638;28;20268;-78
2022/03/28 10:14:44;;;;;;;26.00;12.63;;;15.60;90.70;;;;;;5017003;28;20174;-77
2022/03/28 10:17:10;;;;;;;23.35;11.68;;;15.70;90.70;;;;;;5018038;28;20261;-77
2022/03/28 10:19:40;;;;;;;21.08;11.32;;;15.40;90.00;;;;;;5016828;28;20678;-78
2022/03/28 10:22:12;;;;;;;22.58;12.63;;;16.00;89.10;;;;;;5017355;28;20223;-79
2022/03/28 10:24:40;;;;;;;23.95;11.75;;;16.40;89.10;;;;;;5016342;28;20715;-79
2022/03/28 10:27:06;;;;;;;23.80;12.80;;;15.70;89.60;;;;;;5020284;28;20166;-79
2022/03/28 10:29:44;;;;;;;23.27;12.77;;;14.10;91.10;;;;;;5018383;28;20201;-79
2022/03/28 10:32:20;;;;;;;22.43;11.53;;;14.60;91.90;;;;;;5016611;28;20193;-78
2022/03/28 10:34:53;;;;;;;21.40;11.70;;;15.40;90.80;;;;;;5016402;28;20182;-77
2022/03/28 10:37:39;;;;;;;26.23;12.93;;;16.20;89.20;;;;;;5016385;28;20217;-78
2022/03/28 10:40:30;;;;;;;25.17;12.73;;;15.70;90.30;;;;;;5018370;28;20251;-79
2022/03/28 10:43:11;;;;;;;23.87;12.33;;;16.10;90.30;;;;;;5018046;28;20480;-79
2022/03/28 10:45:56;;;;;;;24.37;12.67;;;15.80;89.70;;;;;;5015277;28;20177;-77
2022/03/28 10:48:51;;;;;;;23.80;12.23;;;15.80;91.10;;;;;;5016065;28;20174;-78
2022/03/28 10:51:24;;;;;;;26.40;13.03;;;16.40;90.00;;;;;;5018498;28;20181;-80
2022/03/28 10:53:54;;;;;;;23.97;11.73;;;16.00;89.70;;;;;;5021194;28;20201;-79
2022/03/28 10:56:33;;;;;;;24.73;13.70;;;16.20;90.10;;;;;;5020049;28;20185;-76
2022/03/28 10:59:05;;;;;;;30.83;13.20;;;15.60;89.80;;;;;;5017787;28;20190;-78
2022/03/28 11:01:52;;;;;;;29.57;13.57;;;15.90;90.30;;;;;;5020206;28;20193;-78
2022/03/28 11:04:20;;;;;;;29.27;14.60;;;14.60;90.50;;;;;;5019118;28;20224;-79
2022/03/28 11:06:49;;;;;;;31.20;14.67;;;14.90;91.00;;;;;;5017178;28;20166;-79
2022/03/28 11:09:32;;;;;;;31.00;14.07;;;15.10;91.10;;;;;;5016818;28;20228;-79
2022/03/28 11:12:01;;;;;;;30.70;14.40;;;15.30;91.60;;;;;;5017180;28;20170;-77
2022/03/28 11:14:41;;;;;;;38.77;16.10;;;14.90;91.00;;;;;;5016699;28;20222;-79
2022/03/28 11:17:20;;;;;;;32.20;15.07;;;15.30;91.50;;;;;;5019708;28;20257;-79
2022/03/28 11:19:56;;;;;;;29.23;14.17;;;14.90;90.80;;;;;;5018814;28;20202;-79
2022/03/28 11:22:47;;;;;;;36.53;15.70;;;14.80;91.20;;;;;;5019646;28;20173;-79
2022/03/28 11:25:36;;;;;;;33.80;14.50;;;15.20;92.00;;;;;;5018423;28;20262;-79
2022/03/28 11:28:13;;;;;;;32.67;14.57;;;16.00;90.90;;;;;;5019842;28;20169;-79
2022/03/28 11:30:39;;;;;;;30.80;14.17;;;16.70;90.30;;;;;;5022693;28;20265;-79
2022/03/28 11:33:10;;;;;;;29.50;14.27;;;17.20;88.80;;;;;;5043604;23;20587;-80
2022/03/28 11:35:37;;;;;;;28.40;15.20;;;17.10;88.00;;;;;;5057296;28;20218;-79
2022/03/28 11:38:04;;;;;;;32.27;14.90;;;16.70;87.40;;;;;;5056640;28;20176;-81
2022/03/28 11:40:40;;;;;;;33.07;15.57;;;16.10;90.70;;;;;;5056873;28;20204;-79
2022/03/28 11:43:06;;;;;;;33.43;15.93;;;17.00;88.30;;;;;;5057782;28;20255;-79
2022/03/28 11:45:33;;;;;;;32.07;15.17;;;17.70;86.70;;;;;;5056160;28;20207;-78
2022/03/28 11:47:59;;;;;;;34.67;15.53;;;18.20;85.30;;;;;;5055990;28;20169;-78
2022/03/28 11:50:32;;;;;;;30.67;14.43;;;18.30;83.20;;;;;;5056337;28;20279;-78
2022/03/28 11:52:58;;;;;;;35.17;16.00;;;18.60;82.90;;;;;;5074796;28;20168;-79
2022/03/28 11:55:26;;;;;;;36.73;15.40;;;18.40;82.90;;;;;;5057810;28;20251;-78
2022/03/28 12:00:39;;;;;;;40.53;15.93;;;17.50;84.60;;;;;;5074005;28;20329;-78
2022/03/28 12:03:05;;;;;;;36.63;15.47;;;17.10;87.10;;;;;;5056065;28;20255;-78
2022/03/28 12:05:39;;;;;;;36.20;14.47;;;16.30;87.10;;;;;;5056258;28;20629;-78
2022/03/28 12:08:10;;;;;;;42.00;16.83;;;15.60;90.20;;;;;;5057501;28;20168;-78
2022/03/28 12:10:38;;;;;;;41.90;16.67;;;15.40;90.40;;;;;;5055933;28;20207;-78
2022/03/28 12:13:06;;;;;;;41.30;16.93;;;16.00;90.10;;;;;;5055784;28;20176;-78
2022/03/28 12:15:35;;;;;;;37.63;16.60;;;16.90;90.10;;;;;;5056221;28;20644;-78
2022/03/28 12:18:04;;;;;;;36.27;16.27;;;16.50;89.70;;;;;;5055338;28;20238;-78
2022/03/28 12:20:33;;;;;;;42.07;16.80;;;16.50;88.10;;;;;;5073801;28;20207;-79
2022/03/28 12:22:59;;;;;;;40.87;16.23;;;16.90;90.30;;;;;;5055524;28;20173;-79
2022/03/28 12:25:28;;;;;;;44.10;16.97;;;17.90;86.00;;;;;;5056303;28;20176;-79
2022/03/28 12:27:56;;;;;;;40.73;16.33;;;17.70;86.30;;;;;;5054916;28;20172;-78
2022/03/28 12:30:39;;;;;;;37.33;15.53;;;17.40;87.70;;;;;;5054772;28;20197;-78
2022/03/28 12:33:13;;;;;;;43.10;16.80;;;16.50;88.20;;;;;;5055408;28;20219;-78
2022/03/28 12:35:48;;;;;;;39.50;17.40;;;16.60;89.80;;;;;;5054818;28;20270;-78
2022/03/28 12:38:19;;;;;;;47.97;16.70;;;16.00;90.50;;;;;;5054275;28;20182;-77
2022/03/28 12:40:46;;;;;;;43.67;17.60;;;16.00;91.30;;;;;;5054377;28;20200;-77
2022/03/28 12:43:16;;;;;;;40.00;17.17;;;16.90;90.80;;;;;;5054223;28;20188;-77